createdAt,value
2018-07-03T00:02:02.491Z,18.05
2018-07-03T00:04:31.920Z,17.95
2018-07-03T00:07:01.528Z,17.95
2018-07-03T00:09:31.646Z,17.96
2018-07-03T00:12:01.032Z,17.97
2018-07-03T00:14:29.628Z,17.97
2018-07-03T00:17:03.565Z,17.98
2018-07-03T00:19:32.506Z,17.99
2018-07-03T00:22:01.180Z,17.98
2018-07-03T00:24:30.494Z,17.95
2018-07-03T00:26:59.167Z,17.93
2018-07-03T00:29:28.202Z,17.91
2018-07-03T00:31:57.149Z,17.91
2018-07-03T00:34:25.988Z,17.91
2018-07-03T00:36:54.704Z,17.90
2018-07-03T00:39:24.413Z,17.88
2018-07-03T00:41:53.572Z,17.84
2018-07-03T00:44:22.322Z,17.81
2018-07-03T00:46:50.997Z,17.76
2018-07-03T00:49:19.717Z,17.76
2018-07-03T00:51:48.614Z,17.77
2018-07-03T00:54:17.267Z,17.74
2018-07-03T00:56:46.344Z,17.74
2018-07-03T00:59:15.008Z,17.72
2018-07-03T01:01:43.655Z,17.68
2018-07-03T01:04:12.349Z,17.67
2018-07-03T01:06:41.126Z,17.66
2018-07-03T01:09:10.309Z,17.65
2018-07-03T01:11:40.467Z,17.62
2018-07-03T01:14:09.284Z,17.57
2018-07-03T01:16:37.974Z,17.50
2018-07-03T01:19:06.706Z,17.50
2018-07-03T01:21:35.394Z,17.46
2018-07-03T01:24:04.114Z,17.46
2018-07-03T01:26:33.335Z,17.45
2018-07-03T01:29:02.019Z,17.44
2018-07-03T01:31:30.714Z,17.40
2018-07-03T01:33:59.447Z,17.36
2018-07-03T01:36:28.468Z,17.35
2018-07-03T01:38:57.227Z,17.34
2018-07-03T01:41:25.878Z,17.31
2018-07-03T01:43:54.846Z,17.27
2018-07-03T01:46:23.460Z,17.14
2018-07-03T01:48:52.147Z,16.95
2018-07-03T01:51:20.900Z,16.92
2018-07-03T01:53:49.781Z,16.88
2018-07-03T01:56:18.548Z,16.87
2018-07-03T01:58:47.177Z,16.86
2018-07-03T02:01:15.928Z,16.88
2018-07-03T02:03:44.664Z,16.84
2018-07-03T02:06:13.345Z,16.86
2018-07-03T02:08:42.076Z,16.85
2018-07-03T02:11:10.814Z,16.85
2018-07-03T02:13:39.470Z,16.86
2018-07-03T02:16:08.495Z,16.75
2018-07-03T02:18:37.378Z,16.62
2018-07-03T02:21:06.291Z,16.63
2018-07-03T02:23:34.991Z,16.67
2018-07-03T02:26:03.697Z,16.76
2018-07-03T02:28:32.549Z,16.76
2018-07-03T02:31:02.094Z,16.73
2018-07-03T02:33:32.634Z,16.68
2018-07-03T02:36:01.951Z,16.62
2018-07-03T02:38:30.565Z,16.57
2018-07-03T02:40:59.583Z,16.53
2018-07-03T02:43:28.244Z,16.54
2018-07-03T02:45:57.361Z,16.54
2018-07-03T02:48:26.140Z,16.41
2018-07-03T02:50:55.421Z,16.36
2018-07-03T02:53:24.146Z,16.37
2018-07-03T02:55:53.227Z,16.37
2018-07-03T02:58:21.959Z,16.36
2018-07-03T03:00:50.671Z,16.36
2018-07-03T03:03:19.600Z,16.38
2018-07-03T03:05:48.322Z,16.42
2018-07-03T03:08:17.428Z,16.45
2018-07-03T03:10:46.153Z,16.47
2018-07-03T03:13:15.095Z,16.49
2018-07-03T03:15:44.050Z,16.52
2018-07-03T03:18:12.709Z,16.51
2018-07-03T03:20:41.356Z,16.40
2018-07-03T03:23:10.014Z,16.33
2018-07-03T03:25:38.765Z,16.23
2018-07-03T03:28:07.579Z,16.20
2018-07-03T03:30:36.281Z,16.26
2018-07-03T03:33:05.455Z,16.28
2018-07-03T03:35:34.279Z,16.31
2018-07-03T03:38:02.932Z,16.34
2018-07-03T03:40:31.925Z,16.39
2018-07-03T03:43:00.587Z,16.41
2018-07-03T03:45:30.036Z,16.43
2018-07-03T03:47:59.085Z,16.44
2018-07-03T03:50:27.706Z,16.44
2018-07-03T03:52:56.732Z,16.35
2018-07-03T03:55:25.478Z,16.26
2018-07-03T03:57:54.143Z,16.22
2018-07-03T04:00:22.786Z,16.23
2018-07-03T04:02:51.657Z,16.26
2018-07-03T04:05:20.435Z,16.28
2018-07-03T04:07:49.085Z,16.31
2018-07-03T04:10:17.802Z,16.32
2018-07-03T04:12:46.522Z,16.25
2018-07-03T04:15:15.199Z,16.26
2018-07-03T04:17:43.977Z,16.26
2018-07-03T04:20:12.664Z,16.24
2018-07-03T04:22:41.344Z,16.27
2018-07-03T04:25:10.078Z,16.33
2018-07-03T04:27:39.234Z,16.33
2018-07-03T04:30:07.984Z,16.26
2018-07-03T04:32:37.172Z,16.20
2018-07-03T04:35:06.966Z,16.16
2018-07-03T04:37:35.781Z,16.19
2018-07-03T04:40:04.935Z,16.26
2018-07-03T04:42:33.638Z,16.25
2018-07-03T04:45:02.403Z,16.32
2018-07-03T04:47:31.817Z,16.33
2018-07-03T04:50:00.851Z,16.39
2018-07-03T04:52:30.028Z,16.44
2018-07-03T04:54:58.886Z,16.50
2018-07-03T04:57:27.611Z,16.50
2018-07-03T04:59:56.304Z,16.53
2018-07-03T05:02:25.045Z,16.60
2018-07-03T05:04:54.459Z,16.62
2018-07-03T05:07:23.609Z,16.67
2018-07-03T05:09:52.272Z,16.67
2018-07-03T05:12:21.267Z,16.73
2018-07-03T05:14:50.059Z,16.75
2018-07-03T05:17:19.151Z,16.80
2018-07-03T05:19:47.907Z,16.88
2018-07-03T05:22:16.604Z,16.89
2018-07-03T05:24:45.404Z,16.94
2018-07-03T05:27:14.009Z,17.04
2018-07-03T05:29:43.043Z,17.08
2018-07-03T05:32:12.541Z,17.18
2018-07-03T05:34:41.261Z,17.27
2018-07-03T05:37:09.912Z,17.34
2018-07-03T05:39:38.616Z,17.39
2018-07-03T05:42:07.240Z,17.49
2018-07-03T05:44:36.121Z,17.59
2018-07-03T05:47:04.997Z,17.64
2018-07-03T05:49:33.617Z,17.77
2018-07-03T05:52:02.422Z,17.81
2018-07-03T05:54:31.338Z,17.84
2018-07-03T05:56:59.962Z,17.97
2018-07-03T05:59:28.675Z,18.02
2018-07-03T06:01:57.392Z,18.06
2018-07-03T06:04:26.189Z,18.14
2018-07-03T06:06:55.018Z,18.20
2018-07-03T06:09:23.997Z,18.28
2018-07-03T06:11:52.880Z,18.33
2018-07-03T06:14:21.599Z,18.37
2018-07-03T06:16:54.450Z,18.45
2018-07-03T06:19:24.003Z,18.50
2018-07-03T06:21:53.807Z,18.56
2018-07-03T06:24:22.562Z,18.62
2018-07-03T06:26:51.407Z,18.66
2018-07-03T06:29:22.481Z,18.76
2018-07-03T06:31:51.523Z,18.87
2018-07-03T06:34:20.931Z,18.98
2018-07-03T06:36:49.710Z,19.08
2018-07-03T06:39:18.588Z,19.20
2018-07-03T06:41:47.523Z,19.30
2018-07-03T06:44:16.860Z,19.44
2018-07-03T06:46:45.791Z,19.52
2018-07-03T06:49:14.916Z,19.64
2018-07-03T06:51:43.633Z,19.82
2018-07-03T06:54:13.077Z,20.07
2018-07-03T06:56:42.168Z,20.31
2018-07-03T06:59:11.074Z,20.57
2018-07-03T07:01:40.122Z,20.79
2018-07-03T07:04:08.755Z,21.05
2018-07-03T07:06:37.454Z,21.29
2018-07-03T07:09:08.601Z,21.51
2018-07-03T07:11:37.428Z,21.76
2018-07-03T07:14:06.380Z,21.95
2018-07-03T07:16:35.576Z,22.21
2018-07-03T07:19:04.560Z,22.48
2018-07-03T07:21:33.462Z,22.74
2018-07-03T07:24:02.295Z,23.07
2018-07-03T07:26:31.371Z,23.36
2018-07-03T07:29:00.047Z,23.75
2018-07-03T07:31:28.803Z,24.05
2018-07-03T07:33:57.913Z,24.30
2018-07-03T07:36:26.962Z,24.35
2018-07-03T07:38:55.984Z,24.52
2018-07-03T07:41:24.737Z,24.52
2018-07-03T07:43:53.631Z,24.69
2018-07-03T07:46:22.385Z,24.82
2018-07-03T07:48:51.157Z,24.95
2018-07-03T07:51:19.915Z,24.92
2018-07-03T07:53:48.714Z,24.85
2018-07-03T07:56:17.499Z,24.55
2018-07-03T07:58:46.593Z,24.36
2018-07-03T08:01:15.375Z,24.49
2018-07-03T08:03:44.323Z,24.61
2018-07-03T08:06:13.044Z,24.50
2018-07-03T08:08:41.944Z,24.65
2018-07-03T08:11:10.993Z,24.69
2018-07-03T08:13:40.293Z,25.05
2018-07-03T08:16:08.978Z,25.16
2018-07-03T08:18:37.654Z,25.69
2018-07-03T08:21:06.558Z,26.24
2018-07-03T08:23:35.250Z,26.64
2018-07-03T08:26:04.125Z,26.92
2018-07-03T08:28:32.786Z,27.20
2018-07-03T08:31:01.470Z,27.60
2018-07-03T08:33:30.157Z,27.96
2018-07-03T08:35:58.853Z,28.07
2018-07-03T08:38:27.583Z,28.16
2018-07-03T08:40:56.581Z,28.31
2018-07-03T08:43:25.356Z,28.54
2018-07-03T08:45:54.351Z,28.69
2018-07-03T08:48:23.010Z,28.94
2018-07-03T08:50:51.738Z,28.95
2018-07-03T08:53:20.376Z,29.20
2018-07-03T08:55:49.622Z,29.23
2018-07-03T08:58:18.535Z,29.30
2018-07-03T09:00:47.305Z,29.27
2018-07-03T09:03:15.976Z,29.29
2018-07-03T09:05:44.947Z,29.32
2018-07-03T09:08:14.170Z,29.47
2018-07-03T09:10:42.856Z,29.49
2018-07-03T09:13:11.993Z,29.61
2018-07-03T09:15:40.710Z,29.56
2018-07-03T09:18:09.536Z,29.65
2018-07-03T09:20:38.290Z,29.69
2018-07-03T09:23:07.126Z,29.53
2018-07-03T09:25:35.841Z,29.27
2018-07-03T09:28:04.621Z,29.41
2018-07-03T09:30:33.758Z,29.48
2018-07-03T09:33:02.525Z,29.29
2018-07-03T09:35:31.699Z,29.02
2018-07-03T09:38:00.516Z,28.67
2018-07-03T09:40:29.172Z,28.28
2018-07-03T09:42:57.974Z,27.77
2018-07-03T09:45:26.697Z,27.19
2018-07-03T09:47:55.467Z,26.66
2018-07-03T09:50:24.430Z,26.35
2018-07-03T09:52:53.069Z,25.97
2018-07-03T09:55:21.719Z,25.68
2018-07-03T09:57:50.825Z,25.60
2018-07-03T10:00:25.136Z,25.38
2018-07-03T10:02:53.827Z,25.29
2018-07-03T10:05:22.527Z,25.23
2018-07-03T10:07:51.708Z,25.20
2018-07-03T10:10:20.366Z,25.37
2018-07-03T10:12:49.226Z,25.49
2018-07-03T10:15:18.004Z,25.53
2018-07-03T10:17:46.756Z,25.49
2018-07-03T10:20:15.972Z,25.42
2018-07-03T10:22:44.715Z,25.38
2018-07-03T10:25:13.510Z,25.36
2018-07-03T10:27:42.406Z,25.37
2018-07-03T10:30:11.129Z,25.44
2018-07-03T10:32:39.855Z,25.56
2018-07-03T10:35:09.211Z,25.52
2018-07-03T10:37:38.309Z,25.62
2018-07-03T10:40:07.155Z,25.62
2018-07-03T10:42:35.887Z,25.65
2018-07-03T10:45:04.997Z,25.79
2018-07-03T10:47:33.857Z,25.98
2018-07-03T10:50:02.709Z,26.26
2018-07-03T10:52:31.496Z,26.61
2018-07-03T10:55:00.119Z,27.12
2018-07-03T10:57:28.788Z,27.89
2018-07-03T10:59:57.444Z,28.51
2018-07-03T11:02:26.201Z,28.54
2018-07-03T11:04:54.828Z,28.14
2018-07-03T11:07:23.877Z,27.83
2018-07-03T11:09:53.067Z,27.49
2018-07-03T11:12:21.966Z,27.23
2018-07-03T11:14:50.672Z,27.11
2018-07-03T11:17:19.408Z,26.99
2018-07-03T11:19:48.093Z,26.80
2018-07-03T11:22:16.817Z,26.50
2018-07-03T11:24:45.556Z,26.40
2018-07-03T11:27:14.368Z,26.51
2018-07-03T11:29:43.438Z,26.49
2018-07-03T11:32:12.177Z,26.34
2018-07-03T11:34:40.804Z,26.48
2018-07-03T11:37:09.514Z,26.73
2018-07-03T11:39:38.250Z,27.34
2018-07-03T11:42:07.214Z,28.65
2018-07-03T11:44:35.986Z,30.05
2018-07-03T11:47:04.711Z,31.14
2018-07-03T11:49:33.434Z,31.30
2018-07-03T11:52:02.876Z,31.54
2018-07-03T11:54:31.662Z,31.19
2018-07-03T11:57:00.514Z,30.68
2018-07-03T11:59:29.546Z,30.31
2018-07-03T12:01:58.326Z,30.31
2018-07-03T12:04:27.159Z,30.59
2018-07-03T12:06:56.835Z,32.21
2018-07-03T12:09:25.601Z,34.53
2018-07-03T12:11:54.874Z,36.75
2018-07-03T12:14:23.604Z,37.62
2018-07-03T12:16:52.683Z,39.43
2018-07-03T12:19:21.427Z,40.87
2018-07-03T12:21:50.310Z,42.70
2018-07-03T12:24:19.131Z,43.03
2018-07-03T12:26:48.113Z,44.46
2018-07-03T12:29:16.868Z,45.12
2018-07-03T12:31:45.647Z,45.64
2018-07-03T12:34:14.670Z,46.09
2018-07-03T12:36:43.397Z,46.03
2018-07-03T12:39:12.679Z,46.55
2018-07-03T12:41:41.356Z,45.03
2018-07-03T12:44:09.991Z,43.49
2018-07-03T12:46:38.938Z,43.26
2018-07-03T12:49:07.933Z,43.51
2018-07-03T12:51:36.712Z,45.20
2018-07-03T12:54:05.403Z,45.58
2018-07-03T12:56:34.306Z,45.77
2018-07-03T12:59:03.187Z,44.35
2018-07-03T13:01:31.987Z,42.68
2018-07-03T13:04:01.052Z,43.64
2018-07-03T13:06:29.779Z,45.06
2018-07-03T13:08:58.823Z,46.50
2018-07-03T13:11:27.550Z,47.20
2018-07-03T13:13:56.318Z,47.56
2018-07-03T13:16:25.625Z,47.30
2018-07-03T13:18:54.913Z,47.91
2018-07-03T13:21:23.899Z,48.52
2018-07-03T13:23:52.562Z,48.84
2018-07-03T13:26:21.304Z,49.32
2018-07-03T13:28:50.282Z,49.19
2018-07-03T13:31:19.116Z,49.24
2018-07-03T13:33:47.827Z,48.65
2018-07-03T13:36:16.813Z,48.54
2018-07-03T13:38:45.552Z,48.56
2018-07-03T13:41:14.514Z,47.86
2018-07-03T13:43:43.305Z,45.68
2018-07-03T13:46:12.754Z,45.76
2018-07-03T13:48:41.486Z,46.59
2018-07-03T13:51:10.235Z,47.41
2018-07-03T13:53:39.284Z,48.09
2018-07-03T13:56:08.119Z,48.03
2018-07-03T13:58:36.821Z,48.53
2018-07-03T14:01:05.602Z,48.83
2018-07-03T14:03:34.375Z,48.47
2018-07-03T14:06:03.025Z,48.68
2018-07-03T14:08:31.722Z,48.25
2018-07-03T14:11:00.353Z,47.97
2018-07-03T14:13:29.142Z,47.11
2018-07-03T14:15:58.302Z,46.39
2018-07-03T14:18:28.016Z,44.01
2018-07-03T14:20:58.888Z,41.14
2018-07-03T14:23:28.710Z,38.71
2018-07-03T14:25:57.351Z,37.20
2018-07-03T14:28:26.032Z,36.62
2018-07-03T14:30:55.042Z,36.23
2018-07-03T14:33:24.049Z,36.01
2018-07-03T14:35:52.738Z,34.60
2018-07-03T14:38:21.463Z,34.36
2018-07-03T14:40:50.250Z,34.35
2018-07-03T14:43:18.976Z,33.94
2018-07-03T14:45:47.766Z,33.60
2018-07-03T14:48:16.565Z,33.10
2018-07-03T14:50:45.323Z,32.90
2018-07-03T14:53:14.270Z,32.60
2018-07-03T14:55:43.412Z,32.24
2018-07-03T14:58:12.074Z,31.92
2018-07-03T15:00:41.125Z,31.74
2018-07-03T15:03:10.314Z,31.41
2018-07-03T15:05:39.086Z,31.11
2018-07-03T15:08:07.850Z,30.86
2018-07-03T15:10:36.521Z,30.09
2018-07-03T15:13:05.616Z,30.15
2018-07-03T15:15:34.299Z,30.08
2018-07-03T15:18:03.279Z,30.06
2018-07-03T15:20:32.029Z,30.00
2018-07-03T15:23:00.728Z,29.92
2018-07-03T15:25:29.458Z,29.85
2018-07-03T15:27:58.152Z,29.71
2018-07-03T15:30:26.838Z,29.53
2018-07-03T15:32:56.275Z,29.46
2018-07-03T15:35:25.064Z,29.29
2018-07-03T15:37:53.854Z,29.06
2018-07-03T15:40:22.802Z,28.89
2018-07-03T15:42:52.015Z,28.85
2018-07-03T15:45:20.736Z,28.74
2018-07-03T15:47:49.484Z,28.78
2018-07-03T15:50:18.531Z,28.89
2018-07-03T15:52:47.368Z,28.92
2018-07-03T15:55:16.081Z,28.85
2018-07-03T15:57:46.377Z,28.75
2018-07-03T16:00:15.693Z,28.52
2018-07-03T16:04:53.951Z,28.45
2018-07-03T16:07:33.539Z,28.38
2018-07-03T16:10:02.470Z,28.36
2018-07-03T16:12:31.243Z,28.26
2018-07-03T16:14:59.986Z,28.07
2018-07-03T16:17:28.761Z,28.11
2018-07-03T16:20:02.548Z,28.08
2018-07-03T16:22:31.507Z,28.06
2018-07-03T16:25:07.726Z,28.03
2018-07-03T16:27:36.442Z,27.94
2018-07-03T16:30:07.493Z,27.89
2018-07-03T16:32:36.515Z,27.86
2018-07-03T16:35:05.604Z,27.80
2018-07-03T16:37:34.693Z,27.67
2018-07-03T16:40:03.605Z,27.60
2018-07-03T16:42:32.335Z,27.64
2018-07-03T16:45:01.182Z,27.62
2018-07-03T16:47:30.081Z,27.52
2018-07-03T16:49:58.742Z,27.46
2018-07-03T16:52:27.539Z,27.43
2018-07-03T16:54:56.247Z,27.40
2018-07-03T16:57:25.087Z,27.39
2018-07-03T16:59:53.812Z,27.34
2018-07-03T17:02:22.448Z,27.30
2018-07-03T17:04:51.143Z,27.28
2018-07-03T17:07:19.882Z,27.27
2018-07-03T17:09:49.371Z,27.21
2018-07-03T17:12:18.303Z,27.14
2018-07-03T17:14:54.096Z,27.10
2018-07-03T17:17:23.208Z,27.05
2018-07-03T17:19:51.896Z,26.97
2018-07-03T17:22:21.656Z,26.92
2018-07-03T17:24:50.315Z,26.90
2018-07-03T17:27:19.161Z,26.86
2018-07-03T17:29:48.259Z,26.84
2018-07-03T17:32:17.783Z,26.80
2018-07-03T17:34:46.595Z,26.79
2018-07-03T17:37:15.232Z,26.75
2018-07-03T17:39:54.977Z,26.71
2018-07-03T17:42:35.820Z,26.64
2018-07-03T17:45:43.309Z,26.56
2018-07-03T17:48:13.288Z,26.51
2018-07-03T17:50:41.955Z,26.44
2018-07-03T17:53:10.826Z,26.42
2018-07-03T17:55:39.959Z,26.37
2018-07-03T17:58:08.967Z,26.31
2018-07-03T18:00:37.756Z,26.20
2018-07-03T18:03:06.509Z,26.17
2018-07-03T18:05:35.529Z,26.10
2018-07-03T18:08:04.305Z,26.08
2018-07-03T18:10:33.020Z,26.04
2018-07-03T18:13:02.108Z,25.98
2018-07-03T18:15:31.313Z,25.96
2018-07-03T18:18:00.188Z,25.92
2018-07-03T18:20:29.056Z,25.89
2018-07-03T18:22:57.850Z,25.84
2018-07-03T18:25:26.563Z,25.81
2018-07-03T18:27:55.301Z,25.79
2018-07-03T18:30:26.147Z,25.75
2018-07-03T18:32:55.612Z,25.74
2018-07-03T18:35:24.584Z,25.71
2018-07-03T18:37:53.401Z,25.67
2018-07-03T18:40:22.180Z,25.65
2018-07-03T18:42:51.157Z,25.61
2018-07-03T18:45:20.475Z,25.56
2018-07-03T18:47:49.156Z,25.53
2018-07-03T18:50:18.766Z,25.50
2018-07-03T18:52:47.569Z,25.47
2018-07-03T18:55:16.533Z,25.43
2018-07-03T18:57:45.895Z,25.39
2018-07-03T19:00:14.835Z,25.35
2018-07-03T19:02:43.946Z,25.30
2018-07-03T19:05:13.058Z,25.21
2018-07-03T19:07:41.872Z,25.16
2018-07-03T19:10:10.604Z,25.11
2018-07-03T19:12:39.334Z,25.08
2018-07-03T19:15:08.676Z,25.05
2018-07-03T19:17:37.915Z,25.02
2018-07-03T19:20:07.860Z,24.97
2018-07-03T19:22:36.687Z,24.93
2018-07-03T19:25:05.753Z,24.90
2018-07-03T19:27:35.069Z,24.83
2018-07-03T19:30:03.810Z,24.76
2018-07-03T19:32:32.649Z,24.69
2018-07-03T19:35:01.375Z,24.65
2018-07-03T19:37:30.092Z,24.61
2018-07-03T19:39:58.971Z,24.59
2018-07-03T19:42:27.827Z,24.54
2018-07-03T19:44:56.631Z,24.52
2018-07-03T19:47:25.440Z,24.50
2018-07-03T19:49:54.231Z,24.48
2018-07-03T19:52:23.406Z,24.45
2018-07-03T19:54:52.221Z,24.38
2018-07-03T19:57:20.952Z,24.35
2018-07-03T19:59:49.871Z,24.33
2018-07-03T20:02:18.557Z,24.29
2018-07-03T20:04:47.357Z,24.29
2018-07-03T20:07:16.194Z,24.26
2018-07-03T20:09:45.020Z,24.22
2018-07-03T20:12:13.882Z,24.17
2018-07-03T20:14:42.908Z,24.16
2018-07-03T20:17:11.762Z,24.09
2018-07-03T20:19:40.582Z,24.09
2018-07-03T20:22:09.326Z,24.03
2018-07-03T20:24:38.116Z,23.97
2018-07-03T20:27:07.005Z,23.94
2018-07-03T20:29:35.668Z,23.89
2018-07-03T20:32:04.441Z,23.85
2018-07-03T20:34:33.169Z,23.84
2018-07-03T20:37:01.926Z,23.79
2018-07-03T20:39:30.829Z,23.79
2018-07-03T20:41:59.529Z,23.78
2018-07-03T20:44:28.535Z,23.75
2018-07-03T20:46:57.872Z,23.74
2018-07-03T20:49:26.562Z,23.69
2018-07-03T20:51:55.607Z,23.67
2018-07-03T20:54:25.343Z,23.68
2018-07-03T20:56:54.359Z,23.71
2018-07-03T20:59:23.493Z,23.62
2018-07-03T21:01:52.230Z,23.58
2018-07-03T21:04:21.173Z,23.58
2018-07-03T21:06:50.161Z,23.59
2018-07-03T21:09:19.201Z,23.56
2018-07-03T21:11:47.913Z,23.56
2018-07-03T21:14:17.021Z,23.59
2018-07-03T21:16:45.707Z,23.60
2018-07-03T21:19:14.733Z,23.58
2018-07-03T21:21:43.471Z,23.55
2018-07-03T21:24:12.307Z,23.55
2018-07-03T21:26:40.918Z,23.54
2018-07-03T21:29:09.686Z,23.53
2018-07-03T21:31:38.440Z,23.53
2018-07-03T21:34:07.159Z,23.51
2018-07-03T21:36:35.847Z,23.49
2018-07-03T21:39:06.130Z,23.48
2018-07-03T21:41:34.722Z,23.46
2018-07-03T21:44:03.487Z,23.44
2018-07-03T21:46:32.197Z,23.43
2018-07-03T21:49:00.941Z,23.42
2018-07-03T21:51:29.628Z,23.33
2018-07-03T21:53:58.688Z,23.38
2018-07-03T21:56:27.406Z,23.35
2018-07-03T21:58:56.506Z,23.32
2018-07-03T22:01:25.508Z,23.32
2018-07-03T22:03:54.294Z,23.29
2018-07-03T22:06:23.181Z,23.28
2018-07-03T22:08:52.174Z,23.25
2018-07-03T22:11:21.239Z,23.21
2018-07-03T22:13:50.218Z,23.21
2018-07-03T22:16:19.018Z,23.19
2018-07-03T22:18:47.900Z,23.15
2018-07-03T22:21:16.555Z,22.99
2018-07-03T22:23:45.186Z,22.92
2018-07-03T22:26:13.897Z,22.80
2018-07-03T22:28:42.610Z,22.77
2018-07-03T22:31:11.280Z,22.78
2018-07-03T22:33:39.926Z,22.79
2018-07-03T22:36:08.619Z,22.78
2018-07-03T22:38:37.316Z,22.68
2018-07-03T22:41:06.057Z,22.65
2018-07-03T22:43:34.798Z,22.61
2018-07-03T22:46:03.502Z,22.59
2018-07-03T23:02:45.663Z,22.01
2018-07-03T23:05:14.834Z,22.03
2018-07-03T23:07:43.598Z,22.08
2018-07-03T23:10:12.656Z,22.04
2018-07-03T23:12:41.308Z,21.98
2018-07-03T23:15:10.264Z,21.95
2018-07-03T23:17:38.920Z,21.98
2018-07-03T23:20:07.697Z,22.00
2018-07-03T23:22:36.299Z,22.06
2018-07-03T23:25:05.019Z,22.08
2018-07-03T23:27:33.734Z,22.11
2018-07-03T23:30:02.632Z,22.06
2018-07-03T23:32:31.292Z,22.01
2018-07-03T23:35:00.093Z,22.00
2018-07-03T23:37:28.848Z,21.99
2018-07-03T23:39:57.535Z,22.00
2018-07-03T23:42:26.213Z,22.01
2018-07-03T23:44:54.900Z,22.01
2018-07-03T23:47:34.786Z,22.01
2018-07-03T23:50:14.801Z,22.01
2018-07-03T23:52:54.766Z,22.01
2018-07-03T23:55:34.506Z,22.01
2018-07-03T23:58:14.279Z,22.00
